Time;durP1;ratioP1;P1;durP2;ratioP2;P2;SDS_P1;SDS_P2;PMS_P1;PMS_P2;Temp;Humidity;BMP_temperature;BMP_pressure;BME280_temperature;BME280_humidity;BME280_pressure;Samples;Min_cycle;Max_cycle;Signal;HPM_P1;HPM_P2
2022/04/05 00:00:46;;;;;;;;;;;18.60;99.90;;;;;;5084214;28;20408;-60
2022/04/05 00:03:13;;;;;;;;;;;18.60;99.90;;;;;;5101895;28;20269;-58
2022/04/05 00:05:41;;;;;;;;;;;18.60;99.90;;;;;;5098059;28;19931;-58
2022/04/05 00:08:08;;;;;;;;;;;18.60;99.90;;;;;;5103092;28;20022;-58
2022/04/05 00:10:36;;;;;;;;;;;18.60;99.90;;;;;;5097278;28;19920;-58
2022/04/05 00:13:07;;;;;;;;;;;18.60;99.90;;;;;;5101835;28;19930;-59
2022/04/05 00:15:34;;;;;;;;;;;18.60;99.90;;;;;;5101319;28;19927;-58
2022/04/05 00:18:02;;;;;;;;;;;18.50;99.90;;;;;;5109548;28;20340;-53
2022/04/05 00:20:29;;;;;;;;;;;18.50;99.90;;;;;;5095879;28;19920;-58
2022/04/05 00:22:58;;;;;;;;;;;18.50;99.90;;;;;;5088337;28;19924;-60
2022/04/05 00:25:25;;;;;;;;;;;18.50;99.90;;;;;;5101722;28;19924;-56
2022/04/05 00:27:53;;;;;;;;;;;18.50;99.90;;;;;;5086890;28;19931;-59
2022/04/05 00:30:20;;;;;;;;;;;18.50;99.90;;;;;;5079035;28;19930;-57
2022/04/05 00:32:47;;;;;;;;;;;18.40;99.90;;;;;;5095511;28;20294;-56
2022/04/05 00:35:14;;;;;;;;;;;18.40;99.90;;;;;;5101324;28;19924;-58
2022/04/05 00:37:42;;;;;;;;;;;18.40;99.90;;;;;;5097057;28;19927;-58
2022/04/05 00:40:09;;;;;;;;;;;18.40;99.90;;;;;;5092919;28;19920;-58
2022/04/05 00:42:36;;;;;;;;;;;18.40;99.90;;;;;;5098192;28;19931;-59
2022/04/05 00:45:08;;;;;;;;;;;18.40;99.90;;;;;;5083824;28;20268;-59
2022/04/05 00:47:36;;;;;;;;;;;18.40;99.90;;;;;;5089745;28;20298;-54
2022/04/05 00:50:04;;;;;;;;;;;18.40;99.90;;;;;;5100380;28;20422;-56
2022/04/05 00:52:31;;;;;;;;;;;18.40;99.90;;;;;;5089987;28;20387;-58
2022/04/05 00:54:59;;;;;;;;;;;18.40;99.90;;;;;;5086969;28;19939;-57
2022/04/05 00:57:27;;;;;;;;;;;18.40;99.90;;;;;;5099818;28;19923;-58
2022/04/05 00:59:56;;;;;;;;;;;18.40;99.90;;;;;;5093029;28;20288;-59
2022/04/05 01:02:25;;;;;;;;;;;18.40;99.90;;;;;;5095188;28;19924;-56
2022/04/05 01:04:53;;;;;;;;;;;18.30;99.90;;;;;;5102640;28;20020;-61
2022/04/05 01:07:22;;;;;;;;;;;18.40;99.90;;;;;;5095395;28;20320;-57
2022/04/05 01:09:53;;;;;;;;;;;18.40;99.90;;;;;;5093915;28;19924;-58
2022/04/05 01:12:21;;;;;;;;;;;18.30;99.90;;;;;;5096919;28;19923;-57
2022/04/05 01:14:49;;;;;;;;;;;18.30;99.90;;;;;;5090126;28;20284;-59
2022/04/05 01:17:16;;;;;;;;;;;18.30;99.90;;;;;;5083231;28;20396;-58
2022/04/05 01:19:44;;;;;;;;;;;18.30;99.90;;;;;;5090439;28;20364;-59
2022/04/05 01:22:11;;;;;;;;;;;18.30;99.90;;;;;;5101029;28;19932;-58
2022/04/05 01:24:38;;;;;;;;;;;18.30;99.90;;;;;;5098923;28;19927;-59
2022/04/05 01:27:08;;;;;;;;;;;18.30;99.90;;;;;;5097752;28;19927;-57
2022/04/05 01:29:35;;;;;;;;;;;18.30;99.90;;;;;;5080895;28;20353;-54
2022/04/05 01:32:04;;;;;;;;;;;18.30;99.90;;;;;;5095620;28;19924;-59
2022/04/05 01:34:32;;;;;;;;;;;18.30;99.90;;;;;;5096450;28;20522;-56
2022/04/05 01:37:01;;;;;;;;;;;18.30;99.90;;;;;;5086110;28;20340;-60
2022/04/05 01:39:30;;;;;;;;;;;18.30;99.90;;;;;;5099880;28;19934;-61
2022/04/05 01:42:01;;;;;;;;;;;18.30;99.90;;;;;;5090069;28;19931;-59
2022/04/05 01:44:29;;;;;;;;;;;18.20;99.90;;;;;;5098393;28;19924;-59
2022/04/05 01:46:57;;;;;;;;;;;18.30;99.90;;;;;;5089839;28;20419;-59
2022/04/05 01:49:24;;;;;;;;;;;18.30;99.90;;;;;;5099264;28;20368;-59
2022/04/05 01:51:51;;;;;;;;;;;18.30;99.90;;;;;;5096575;28;19931;-58
2022/04/05 01:54:18;;;;;;;;;;;18.30;99.90;;;;;;5098735;28;19990;-58
2022/04/05 01:56:50;;;;;;;;;;;18.30;99.90;;;;;;5104903;28;19931;-59
2022/04/05 01:59:19;;;;;;;;;;;18.20;99.90;;;;;;5088169;28;19928;-59
2022/04/05 02:01:46;;;;;;;;;;;18.20;99.90;;;;;;5103843;28;19927;-60
2022/04/05 02:04:13;;;;;;;;;;;18.20;99.90;;;;;;5086671;28;19931;-59
2022/04/05 02:06:41;;;;;;;;;;;18.20;99.90;;;;;;5084525;28;20411;-60
2022/04/05 02:09:08;;;;;;;;;;;18.20;99.90;;;;;;5094637;28;20312;-59
2022/04/05 02:11:36;;;;;;;;;;;18.20;99.90;;;;;;5095815;28;19995;-60
2022/04/05 02:14:19;;;;;;;;;;;18.20;99.90;;;;;;5086131;28;19924;-58
2022/04/05 02:16:47;;;;;;;;;;;18.20;99.90;;;;;;5084708;28;19934;-61
2022/04/05 02:19:15;;;;;;;;;;;18.20;99.90;;;;;;5076035;28;20573;-59
2022/04/05 02:21:43;;;;;;;;;;;18.20;99.90;;;;;;5086826;28;19924;-61
2022/04/05 02:24:10;;;;;;;;;;;18.20;99.90;;;;;;5078854;28;19919;-62
2022/04/05 02:26:39;;;;;;;;;;;18.20;99.90;;;;;;5087309;28;19955;-59
2022/04/05 02:29:07;;;;;;;;;;;18.20;99.90;;;;;;5086440;28;20261;-59
2022/04/05 02:31:39;;;;;;;;;;;18.20;99.90;;;;;;5089782;28;19920;-60
2022/04/05 02:34:09;;;;;;;;;;;18.20;99.90;;;;;;5100017;28;19920;-61
2022/04/05 02:36:45;;;;;;;;;;;18.20;99.90;;;;;;5086360;28;19920;-60
2022/04/05 02:39:15;;;;;;;;;;;18.10;99.90;;;;;;5083610;28;19927;-61
2022/04/05 02:41:47;;;;;;;;;;;18.10;99.90;;;;;;5088559;28;19928;-61
2022/04/05 02:44:17;;;;;;;;;;;18.20;99.90;;;;;;5088978;28;19928;-57
2022/04/05 02:46:46;;;;;;;;;;;18.20;99.90;;;;;;5090896;28;19931;-61
2022/04/05 02:49:15;;;;;;;;;;;18.20;99.90;;;;;;5104194;28;20316;-60
2022/04/05 02:51:45;;;;;;;;;;;18.20;99.90;;;;;;5087276;28;19920;-61
2022/04/05 02:54:19;;;;;;;;;;;18.20;99.90;;;;;;5093048;28;19931;-61
2022/04/05 02:56:48;;;;;;;;;;;18.20;99.90;;;;;;5074207;28;20015;-59
2022/04/05 02:59:16;;;;;;;;;;;18.20;99.90;;;;;;5091168;28;19924;-60
2022/04/05 03:01:45;;;;;;;;;;;18.20;99.90;;;;;;5081126;28;20357;-62
2022/04/05 03:04:16;;;;;;;;;;;18.20;99.90;;;;;;5090011;28;19939;-60
2022/04/05 03:06:43;;;;;;;;;;;18.20;99.90;;;;;;5112315;28;19924;-62
2022/04/05 03:09:12;;;;;;;;;;;18.20;99.90;;;;;;5091948;28;20369;-60
2022/04/05 03:11:40;;;;;;;;;;;18.20;99.90;;;;;;5087145;28;20319;-61
2022/04/05 03:14:10;;;;;;;;;;;18.20;99.90;;;;;;5093675;28;19919;-59
2022/04/05 03:16:37;;;;;;;;;;;18.20;99.90;;;;;;5095870;28;19932;-60
2022/04/05 03:19:11;;;;;;;;;;;18.20;99.90;;;;;;5085429;28;20007;-60
2022/04/05 03:21:38;;;;;;;;;;;18.20;99.90;;;;;;5081833;28;19920;-61
2022/04/05 03:24:06;;;;;;;;;;;18.10;99.90;;;;;;5090376;28;19988;-61
2022/04/05 03:26:33;;;;;;;;;;;18.20;99.90;;;;;;5076222;28;19920;-61
2022/04/05 03:29:00;;;;;;;;;;;18.20;99.90;;;;;;5095198;28;19927;-62
2022/04/05 03:31:28;;;;;;;;;;;18.20;99.90;;;;;;5078816;28;20396;-61
2022/04/05 03:33:57;;;;;;;;;;;18.10;99.90;;;;;;5084169;28;19923;-60
2022/04/05 03:36:24;;;;;;;;;;;18.10;99.90;;;;;;5073583;28;19927;-61
2022/04/05 03:38:51;;;;;;;;;;;18.10;99.90;;;;;;5103536;28;20394;-61
2022/04/05 03:41:19;;;;;;;;;;;18.10;99.90;;;;;;5097193;28;19923;-61
2022/04/05 03:43:47;;;;;;;;;;;18.10;99.90;;;;;;5073743;28;19930;-59
2022/04/05 03:46:19;;;;;;;;;;;18.10;99.90;;;;;;5088897;28;19923;-61
2022/04/05 03:48:48;;;;;;;;;;;18.10;99.90;;;;;;5087746;28;19935;-60
2022/04/05 03:51:17;;;;;;;;;;;18.10;99.90;;;;;;5085706;28;19923;-61
2022/04/05 03:53:54;;;;;;;;;;;18.10;99.90;;;;;;5084623;28;19920;-58
2022/04/05 03:56:23;;;;;;;;;;;18.10;99.90;;;;;;5073453;28;19931;-59
2022/04/05 03:58:54;;;;;;;;;;;18.20;99.90;;;;;;5088134;28;19920;-59
2022/04/05 04:01:22;;;;;;;;;;;18.40;99.90;;;;;;5085432;28;20388;-59
2022/04/05 04:03:50;;;;;;;;;;;18.50;99.90;;;;;;5078678;28;19928;-61
2022/04/05 04:06:17;;;;;;;;;;;18.60;99.90;;;;;;5065179;28;19924;-60
2022/04/05 04:08:45;;;;;;;;;;;18.80;99.90;;;;;;5080695;28;19935;-61
2022/04/05 04:11:14;;;;;;;;;;;18.90;99.90;;;;;;5081783;28;19926;-59
2022/04/05 04:13:43;;;;;;;;;;;19.00;99.90;;;;;;5085942;28;19923;-60
2022/04/05 04:16:12;;;;;;;;;;;19.10;99.90;;;;;;5100179;28;19928;-60
2022/04/05 04:18:43;;;;;;;;;;;19.10;99.90;;;;;;5073082;28;19937;-59
2022/04/05 04:21:10;;;;;;;;;;;19.10;99.90;;;;;;5074707;28;20096;-60
2022/04/05 04:23:39;;;;;;;;;;;19.20;99.90;;;;;;5082830;28;20010;-60
2022/04/05 04:26:08;;;;;;;;;;;19.20;99.90;;;;;;5086292;28;20440;-58
2022/04/05 04:28:35;;;;;;;;;;;19.20;99.90;;;;;;5086732;28;20388;-59
2022/04/05 04:31:02;;;;;;;;;;;19.20;99.90;;;;;;5097368;28;19954;-58
2022/04/05 04:33:29;;;;;;;;;;;19.20;99.90;;;;;;5086508;28;20272;-59
2022/04/05 04:35:57;;;;;;;;;;;19.20;99.90;;;;;;5088552;28;20425;-61
2022/04/05 04:38:24;;;;;;;;;;;19.20;99.90;;;;;;5078341;28;20022;-58
2022/04/05 04:40:51;;;;;;;;;;;19.20;99.90;;;;;;5093968;28;19923;-55
2022/04/05 04:43:19;;;;;;;;;;;19.20;99.90;;;;;;5096620;28;19923;-60
2022/04/05 04:45:47;;;;;;;;;;;19.20;99.90;;;;;;5095532;28;19928;-58
2022/04/05 04:48:14;;;;;;;;;;;19.20;99.90;;;;;;5095985;28;19923;-59
2022/04/05 04:50:41;;;;;;;;;;;19.10;99.90;;;;;;5091022;28;19924;-59
2022/04/05 04:53:08;;;;;;;;;;;19.20;99.90;;;;;;5097186;28;20621;-57
2022/04/05 04:55:35;;;;;;;;;;;19.10;99.90;;;;;;5094738;28;19924;-61
2022/04/05 04:58:22;;;;;;;;;;;19.20;99.90;;;;;;5090144;28;19924;-57
2022/04/05 05:00:50;;;;;;;;;;;19.10;99.90;;;;;;5095685;28;20304;-62
2022/04/05 05:03:18;;;;;;;;;;;19.10;99.90;;;;;;5083658;28;19928;-62
2022/04/05 05:05:47;;;;;;;;;;;19.20;99.90;;;;;;5104639;28;19927;-61
2022/04/05 05:08:14;;;;;;;;;;;19.10;99.90;;;;;;5099403;28;19946;-62
2022/04/05 05:10:41;;;;;;;;;;;19.10;99.90;;;;;;5099475;28;20315;-61
2022/04/05 05:13:08;;;;;;;;;;;19.10;99.90;;;;;;5100145;28;19930;-61
2022/04/05 05:15:35;;;;;;;;;;;19.10;99.90;;;;;;5101761;28;20397;-60
2022/04/05 05:18:03;;;;;;;;;;;19.10;99.90;;;;;;5102053;28;20391;-59
2022/04/05 05:20:30;;;;;;;;;;;19.10;99.90;;;;;;5100364;28;20341;-59
2022/04/05 05:22:58;;;;;;;;;;;19.20;99.90;;;;;;5094511;28;19934;-59
2022/04/05 05:25:25;;;;;;;;;;;19.10;99.90;;;;;;5105188;28;19923;-59
2022/04/05 05:27:52;;;;;;;;;;;19.20;99.90;;;;;;5103609;28;20005;-61
2022/04/05 05:30:19;;;;;;;;;;;19.20;99.90;;;;;;5105187;28;20189;-63
2022/04/05 05:32:49;;;;;;;;;;;19.20;99.90;;;;;;5098629;28;19943;-61
2022/04/05 05:35:17;;;;;;;;;;;19.20;99.90;;;;;;5097069;28;19931;-59
2022/04/05 05:37:45;;;;;;;;;;;19.20;99.90;;;;;;5099764;28;19928;-60
2022/04/05 05:40:12;;;;;;;;;;;19.20;99.90;;;;;;5102270;28;19927;-59
2022/04/05 05:42:46;;;;;;;;;;;19.20;99.90;;;;;;5103099;28;19926;-60
2022/04/05 05:45:14;;;;;;;;;;;19.20;99.90;;;;;;5099095;28;19927;-59
2022/04/05 05:47:41;;;;;;;;;;;19.10;99.90;;;;;;5085223;28;19942;-59
2022/04/05 05:50:10;;;;;;;;;;;19.10;99.90;;;;;;5104876;28;19924;-59
2022/04/05 05:52:37;;;;;;;;;;;19.20;99.90;;;;;;5096748;28;19927;-61
2022/04/05 05:55:04;;;;;;;;;;;19.20;99.90;;;;;;5104489;28;20337;-61
2022/04/05 05:57:31;;;;;;;;;;;19.20;99.90;;;;;;5106043;28;19931;-61
2022/04/05 05:59:58;;;;;;;;;;;19.20;99.90;;;;;;5105336;28;19928;-62
2022/04/05 06:02:26;;;;;;;;;;;19.10;99.90;;;;;;5103051;28;19930;-63
2022/04/05 06:04:53;;;;;;;;;;;19.20;99.90;;;;;;5108062;28;20384;-59
2022/04/05 06:07:20;;;;;;;;;;;19.20;99.90;;;;;;5105139;28;20383;-58
2022/04/05 06:09:47;;;;;;;;;;;19.10;99.90;;;;;;5093029;28;20435;-57
2022/04/05 06:12:14;;;;;;;;;;;19.10;99.90;;;;;;5095194;28;19939;-59
2022/04/05 06:14:41;;;;;;;;;;;19.10;99.90;;;;;;5097144;28;19939;-58
2022/04/05 06:17:08;;;;;;;;;;;19.00;99.90;;;;;;5091791;28;19968;-60
2022/04/05 06:19:37;;;;;;;;;;;19.00;99.90;;;;;;5102432;28;19924;-57
2022/04/05 06:22:04;;;;;;;;;;;19.00;99.90;;;;;;5100270;28;19924;-60
2022/04/05 06:24:31;;;;;;;;;;;19.00;99.90;;;;;;5099676;28;20431;-53
2022/04/05 06:26:59;;;;;;;;;;;19.00;99.90;;;;;;5099384;28;20364;-65
2022/04/05 06:29:26;;;;;;;;;;;19.10;99.90;;;;;;5098902;28;19924;-63
2022/04/05 06:31:53;;;;;;;;;;;19.10;99.90;;;;;;5105969;28;19923;-60
2022/04/05 06:34:24;;;;;;;;;;;19.20;99.90;;;;;;5102351;28;19924;-60
2022/04/05 06:36:51;;;;;;;;;;;19.30;99.90;;;;;;5084546;28;19924;-59
2022/04/05 06:39:18;;;;;;;;;;;19.60;99.90;;;;;;5093796;28;19920;-58
2022/04/05 06:41:46;;;;;;;;;;;19.80;99.90;;;;;;5100929;28;19923;-58
2022/04/05 06:44:13;;;;;;;;;;;19.90;99.90;;;;;;5106046;28;19927;-62
2022/04/05 06:46:40;;;;;;;;;;;20.00;99.90;;;;;;5101846;28;19924;-59
2022/04/05 06:49:07;;;;;;;;;;;20.20;99.90;;;;;;5104539;28;19928;-59
2022/04/05 06:51:34;;;;;;;;;;;20.30;99.90;;;;;;5107705;28;19923;-56
2022/04/05 06:54:02;;;;;;;;;;;20.30;99.90;;;;;;5095592;28;20004;-56
2022/04/05 06:56:29;;;;;;;;;;;20.40;99.90;;;;;;5088025;28;19924;-58
2022/04/05 06:58:56;;;;;;;;;;;20.50;99.90;;;;;;5103523;28;19924;-58
2022/04/05 07:01:23;;;;;;;;;;;20.60;99.90;;;;;;5102072;28;20284;-59
2022/04/05 07:03:50;;;;;;;;;;;20.60;99.90;;;;;;5102954;28;19931;-59
2022/04/05 07:06:18;;;;;;;;;;;20.70;99.90;;;;;;5095530;28;19935;-58
2022/04/05 07:08:47;;;;;;;;;;;20.80;99.90;;;;;;5104964;28;20383;-56
2022/04/05 07:11:14;;;;;;;;;;;20.80;99.90;;;;;;5101941;28;19930;-56
2022/04/05 07:13:41;;;;;;;;;;;20.90;99.90;;;;;;5090384;28;19924;-59
2022/04/05 07:16:08;;;;;;;;;;;20.90;99.90;;;;;;5101162;28;19920;-58
2022/04/05 07:18:36;;;;;;;;;;;21.00;99.90;;;;;;5098435;28;19924;-60
2022/04/05 07:21:03;;;;;;;;;;;21.00;99.90;;;;;;5105418;28;19924;-57
2022/04/05 07:23:30;;;;;;;;;;;21.10;99.90;;;;;;5086014;28;19938;-59
2022/04/05 07:25:57;;;;;;;;;;;21.10;99.90;;;;;;5104894;28;19935;-60
2022/04/05 07:28:25;;;;;;;;;;;21.10;99.90;;;;;;5105433;28;20402;-58
2022/04/05 07:30:52;;;;;;;;;;;21.20;99.90;;;;;;5102978;28;20257;-58
2022/04/05 07:33:19;;;;;;;;;;;21.30;99.90;;;;;;5102129;28;19945;-61
2022/04/05 07:35:47;;;;;;;;;;;21.30;99.80;;;;;;5102239;28;20187;-60
2022/04/05 07:38:14;;;;;;;;;;;21.30;99.70;;;;;;5099944;28;20285;-57
2022/04/05 07:40:50;;;;;;;;;;;21.40;99.70;;;;;;5107661;28;19947;-59
2022/04/05 07:43:19;;;;;;;;;;;21.30;99.60;;;;;;5103071;28;19935;-54
2022/04/05 07:45:50;;;;;;;;;;;21.40;99.40;;;;;;5094614;28;19924;-60
2022/04/05 07:48:21;;;;;;;;;;;21.40;99.40;;;;;;5104070;28;19938;-61
2022/04/05 07:50:48;;;;;;;;;;;21.40;99.60;;;;;;5103885;28;19923;-60
2022/04/05 07:53:16;;;;;;;;;;;21.40;99.80;;;;;;5103996;28;19923;-61
2022/04/05 07:55:43;;;;;;;;;;;21.30;99.90;;;;;;5097749;28;19931;-62
2022/04/05 07:58:10;;;;;;;;;;;21.30;99.90;;;;;;5092324;28;19935;-63
2022/04/05 08:00:38;;;;;;;;;;;21.30;99.90;;;;;;5101365;28;19923;-59
2022/04/05 08:03:05;;;;;;;;;;;21.30;99.90;;;;;;5093077;28;19923;-59
2022/04/05 08:05:32;;;;;;;;;;;21.30;99.90;;;;;;5095861;28;19942;-60
2022/04/05 08:07:59;;;;;;;;;;;21.30;99.90;;;;;;5101012;28;19934;-57
2022/04/05 08:10:27;;;;;;;;;;;21.20;99.90;;;;;;5101216;28;20038;-60
2022/04/05 08:12:54;;;;;;;;;;;21.20;99.90;;;;;;5094360;28;20392;-57
2022/04/05 08:15:23;;;;;;;;;;;21.10;99.90;;;;;;5083965;28;19924;-61
2022/04/05 08:17:51;;;;;;;;;;;21.10;99.90;;;;;;5108295;28;19924;-62
2022/04/05 08:20:19;;;;;;;;;;;21.00;99.90;;;;;;5104345;28;19928;-60
2022/04/05 08:22:47;;;;;;;;;;;21.00;99.90;;;;;;5098099;28;20407;-59
2022/04/05 08:25:16;;;;;;;;;;;20.90;99.90;;;;;;5101214;28;19945;-60
2022/04/05 08:27:47;;;;;;;;;;;20.90;99.90;;;;;;5098297;28;19950;-59
2022/04/05 08:30:17;;;;;;;;;;;20.90;99.90;;;;;;5105173;28;19920;-59
2022/04/05 08:32:45;;;;;;;;;;;20.90;99.90;;;;;;5103482;28;19924;-61
2022/04/05 08:35:14;;;;;;;;;;;20.80;99.90;;;;;;5106847;28;19924;-61
2022/04/05 08:37:41;;;;;;;;;;;20.70;99.90;;;;;;5100200;28;19930;-60
2022/04/05 08:40:10;;;;;;;;;;;20.70;99.90;;;;;;5096487;28;19928;-58
2022/04/05 08:42:39;;;;;;;;;;;20.70;99.90;;;;;;5093972;28;19939;-60
2022/04/05 08:45:10;;;;;;;;;;;20.70;99.90;;;;;;5099761;28;19923;-60
2022/04/05 08:47:43;;;;;;;;;;;20.70;99.90;;;;;;5102123;28;20120;-60
2022/04/05 08:50:10;;;;;;;;;;;20.80;99.90;;;;;;5105227;28;19923;-59
2022/04/05 08:52:37;;;;;;;;;;;20.90;99.90;;;;;;5104544;28;20399;-60
2022/04/05 08:55:05;;;;;;;;;;;20.80;99.90;;;;;;5099286;28;19970;-62
2022/04/05 08:57:32;;;;;;;;;;;21.00;99.90;;;;;;5101269;28;19926;-60
2022/04/05 09:00:00;;;;;;;;;;;21.00;99.50;;;;;;5100104;28;20363;-62
2022/04/05 09:02:27;;;;;;;;;;;21.10;99.20;;;;;;5097892;28;19927;-59
2022/04/05 09:04:54;;;;;;;;;;;21.10;99.00;;;;;;5100162;28;19942;-60
2022/04/05 09:07:23;;;;;;;;;;;21.10;99.10;;;;;;5098674;28;19923;-59
2022/04/05 09:10:09;;;;;;;;;;;21.10;99.10;;;;;;5091418;28;19920;-57
2022/04/05 09:12:43;;;;;;;;;;;21.20;99.20;;;;;;5102896;28;19946;-58
2022/04/05 09:15:23;;;;;;;;;;;21.30;99.10;;;;;;5076847;28;19931;-58
2022/04/05 09:17:51;;;;;;;;;;;21.30;99.20;;;;;;5078333;28;20330;-58
2022/04/05 09:20:19;;;;;;;;;;;21.30;99.20;;;;;;5096685;28;19927;-62
2022/04/05 09:22:46;;;;;;;;;;;21.30;99.20;;;;;;5093860;28;19927;-59
2022/04/05 09:25:15;;;;;;;;;;;21.30;99.20;;;;;;5099086;28;19923;-63
2022/04/05 09:27:46;;;;;;;;;;;21.30;99.20;;;;;;5095985;28;20003;-59
2022/04/05 09:30:14;;;;;;;;;;;21.30;99.20;;;;;;5096517;28;19923;-59
2022/04/05 09:32:43;;;;;;;;;;;21.30;99.20;;;;;;5096113;28;19930;-61
2022/04/05 09:35:11;;;;;;;;;;;21.30;99.30;;;;;;5099491;28;19947;-60
2022/04/05 09:37:39;;;;;;;;;;;21.30;99.30;;;;;;5105435;28;19920;-60
2022/04/05 09:40:15;;;;;;;;;;;21.20;99.30;;;;;;5105545;28;19928;-59
2022/04/05 09:43:02;;;;;;;;;;;21.20;99.30;;;;;;5099180;28;20348;-58
2022/04/05 09:45:46;;;;;;;;;;;21.20;99.40;;;;;;5101885;28;20007;-58
2022/04/05 09:48:15;;;;;;;;;;;21.20;99.40;;;;;;5104695;28;19923;-59
2022/04/05 09:51:02;;;;;;;;;;;21.20;99.50;;;;;;5097602;28;19933;-58
2022/04/05 09:53:38;;;;;;;;;;;21.10;99.50;;;;;;5101305;28;20387;-59
2022/04/05 09:56:08;;;;;;;;;;;21.10;99.50;;;;;;5096681;28;19920;-58
2022/04/05 09:58:35;;;;;;;;;;;21.10;99.60;;;;;;5103210;28;19931;-58
2022/04/05 10:01:11;;;;;;;;;;;21.10;99.40;;;;;;5103781;28;19924;-60
2022/04/05 10:03:40;;;;;;;;;;;21.00;98.80;;;;;;5108317;28;19923;-62
2022/04/05 10:06:07;;;;;;;;;;;21.00;98.80;;;;;;5102381;28;19924;-59
2022/04/05 10:08:35;;;;;;;;;;;21.00;98.70;;;;;;5106324;28;20328;-58
2022/04/05 10:11:03;;;;;;;;;;;21.00;98.70;;;;;;5090744;28;19924;-57
2022/04/05 10:13:30;;;;;;;;;;;21.00;98.80;;;;;;5092985;28;19966;-61
2022/04/05 10:16:00;;;;;;;;;;;21.00;98.90;;;;;;5086922;28;20258;-59
2022/04/05 10:18:35;;;;;;;;;;;21.00;99.00;;;;;;5100127;28;19935;-62
2022/04/05 10:21:03;;;;;;;;;;;21.00;99.00;;;;;;5086874;28;19935;-60
2022/04/05 10:23:31;;;;;;;;;;;21.00;98.90;;;;;;5101119;28;19923;-59
2022/04/05 10:25:59;;;;;;;;;;;21.10;98.70;;;;;;5100207;28;20281;-61
2022/04/05 10:28:28;;;;;;;;;;;21.20;98.90;;;;;;5101892;28;19924;-60
2022/04/05 10:30:55;;;;;;;;;;;21.30;99.00;;;;;;5102904;28;19934;-60
2022/04/05 10:33:28;;;;;;;;;;;21.40;99.10;;;;;;5102260;28;20284;-59
2022/04/05 10:35:59;;;;;;;;;;;21.40;99.10;;;;;;5097460;28;20400;-59
2022/04/05 10:38:27;;;;;;;;;;;21.50;99.20;;;;;;5102441;28;19934;-59
2022/04/05 10:41:14;;;;;;;;;;;21.60;99.20;;;;;;5100334;28;19927;-57
2022/04/05 10:43:42;;;;;;;;;;;21.60;99.30;;;;;;5096925;28;19923;-56
2022/04/05 10:46:09;;;;;;;;;;;21.70;99.50;;;;;;5101154;28;19920;-67
2022/04/05 10:48:37;;;;;;;;;;;21.70;99.70;;;;;;5095247;28;19934;-59
2022/04/05 10:51:05;;;;;;;;;;;21.70;99.60;;;;;;5095556;28;19924;-60
2022/04/05 10:53:34;;;;;;;;;;;21.70;99.40;;;;;;5100027;28;20158;-59
2022/04/05 10:56:04;;;;;;;;;;;21.60;99.40;;;;;;5105475;28;19935;-59
2022/04/05 10:58:35;;;;;;;;;;;21.50;99.50;;;;;;5099436;28;20023;-57
2022/04/05 11:01:12;;;;;;;;;;;21.50;99.80;;;;;;5101971;28;19923;-60
2022/04/05 11:03:40;;;;;;;;;;;21.50;99.70;;;;;;5099309;28;19954;-62
2022/04/05 11:06:07;;;;;;;;;;;21.50;99.70;;;;;;5104492;28;19923;-60
2022/04/05 11:08:35;;;;;;;;;;;21.50;99.80;;;;;;5099098;28;19938;-60
2022/04/05 11:11:05;;;;;;;;;;;21.50;99.90;;;;;;5096661;28;19930;-61
2022/04/05 11:13:33;;;;;;;;;;;21.50;99.90;;;;;;5098209;28;19935;-60
2022/04/05 11:16:01;;;;;;;;;;;21.60;99.90;;;;;;5092294;28;19943;-59
2022/04/05 11:18:34;;;;;;;;;;;21.60;99.90;;;;;;5104530;28;19923;-58
2022/04/05 11:21:06;;;;;;;;;;;21.60;99.90;;;;;;5103111;28;19930;-60
2022/04/05 11:23:42;;;;;;;;;;;21.60;99.90;;;;;;5099044;28;19927;-56
2022/04/05 11:26:29;;;;;;;;;;;21.60;99.90;;;;;;5095037;28;19931;-58
2022/04/05 11:28:57;;;;;;;;;;;21.60;99.90;;;;;;5092760;28;19943;-65
2022/04/05 11:31:29;;;;;;;;;;;21.60;99.90;;;;;;5097344;28;19927;-62
2022/04/05 11:33:56;;;;;;;;;;;21.70;99.90;;;;;;5098221;28;19931;-61
2022/04/05 11:36:25;;;;;;;;;;;21.60;99.90;;;;;;5103100;28;19928;-63
2022/04/05 11:38:56;;;;;;;;;;;21.60;99.90;;;;;;5078449;28;19928;-64
2022/04/05 11:41:27;;;;;;;;;;;21.60;99.90;;;;;;5097279;28;20377;-62
2022/04/05 11:43:56;;;;;;;;;;;21.60;99.90;;;;;;5076519;28;20339;-62
2022/04/05 11:46:27;;;;;;;;;;;21.70;99.90;;;;;;5099347;28;19920;-62
2022/04/05 11:48:56;;;;;;;;;;;21.90;99.90;;;;;;5096556;28;19923;-63
2022/04/05 11:51:25;;;;;;;;;;;22.00;99.90;;;;;;5097756;28;19920;-63
2022/04/05 11:54:13;;;;;;;;;;;22.00;99.90;;;;;;5094326;28;20034;-64
2022/04/05 11:56:41;;;;;;;;;;;22.10;99.90;;;;;;5079469;28;19927;-63
2022/04/05 11:59:10;;;;;;;;;;;22.10;99.90;;;;;;5094737;28;20218;-62
2022/04/05 12:01:39;;;;;;;;;;;22.10;99.90;;;;;;5099580;28;19927;-62
2022/04/05 12:04:07;;;;;;;;;;;22.10;99.90;;;;;;5085698;28;19931;-64
2022/04/05 12:06:41;;;;;;;;;;;22.20;99.90;;;;;;5104773;28;19943;-62
2022/04/05 12:09:14;;;;;;;;;;;22.20;99.90;;;;;;5108276;28;19931;-62
2022/04/05 12:11:45;;;;;;;;;;;22.20;99.90;;;;;;5103201;28;19939;-63
2022/04/05 12:14:13;;;;;;;;;;;22.20;99.90;;;;;;5094726;28;20392;-63
2022/04/05 12:16:55;;;;;;;;;;;22.10;99.90;;;;;;5101462;28;19924;-63
2022/04/05 12:19:23;;;;;;;;;;;22.10;99.90;;;;;;5096559;28;19954;-62
2022/04/05 12:21:57;;;;;;;;;;;22.20;99.90;;;;;;5094356;28;19927;-63
2022/04/05 12:24:25;;;;;;;;;;;22.20;99.90;;;;;;5091327;28;20380;-63
2022/04/05 12:26:54;;;;;;;;;;;22.30;99.90;;;;;;5095142;28;19923;-63
2022/04/05 12:29:22;;;;;;;;;;;22.20;99.90;;;;;;5092195;28;19924;-63
2022/04/05 12:31:49;;;;;;;;;;;22.10;99.90;;;;;;5087076;28;20250;-63
2022/04/05 12:34:18;;;;;;;;;;;22.00;99.90;;;;;;5088440;28;19931;-63
2022/04/05 12:36:45;;;;;;;;;;;22.00;99.90;;;;;;5094251;28;19931;-62
2022/04/05 12:39:17;;;;;;;;;;;22.00;99.90;;;;;;5099233;28;20607;-62
2022/04/05 12:41:46;;;;;;;;;;;21.90;99.90;;;;;;5094947;28;19931;-63
2022/04/05 12:44:18;;;;;;;;;;;21.90;99.90;;;;;;5091190;28;19931;-64
2022/04/05 12:46:49;;;;;;;;;;;21.90;99.90;;;;;;5098866;28;19920;-62
2022/04/05 12:49:26;;;;;;;;;;;21.90;99.90;;;;;;5087398;28;19940;-63
2022/04/05 12:52:29;;;;;;;;;;;21.80;99.90;;;;;;5099930;28;19947;-61
2022/04/05 12:54:57;;;;;;;;;;;21.80;99.90;;;;;;5087238;28;19931;-64
2022/04/05 12:57:24;;;;;;;;;;;21.70;99.90;;;;;;5103032;28;19919;-64
2022/04/05 12:59:52;;;;;;;;;;;21.70;99.90;;;;;;5092081;28;19924;-63
2022/04/05 13:02:26;;;;;;;;;;;21.70;99.90;;;;;;5096703;28;19935;-62
2022/04/05 13:06:19;;;;;;;;;;;21.70;99.90;;;;;;5074308;28;19920;-64
2022/04/05 13:07:56;;;;;;;;;;;21.70;99.90;;;;;;5085576;28;19935;-64
2022/04/05 13:10:30;;;;;;;;;;;21.60;99.90;;;;;;5087831;28;19920;-64
2022/04/05 13:13:11;;;;;;;;;;;21.60;99.90;;;;;;5093502;28;20390;-64
2022/04/05 13:15:38;;;;;;;;;;;21.60;99.90;;;;;;5096588;28;19938;-63
2022/04/05 13:18:06;;;;;;;;;;;21.60;99.90;;;;;;5095816;28;19920;-63
2022/04/05 13:20:33;;;;;;;;;;;21.60;99.90;;;;;;5086208;28;19924;-63
2022/04/05 13:23:01;;;;;;;;;;;21.60;99.90;;;;;;5086044;28;19924;-63
2022/04/05 13:25:32;;;;;;;;;;;21.50;99.90;;;;;;5100337;28;19923;-64
2022/04/05 13:28:00;;;;;;;;;;;21.50;99.90;;;;;;5087028;28;19924;-63
2022/04/05 13:30:27;;;;;;;;;;;21.50;99.90;;;;;;5087693;28;19935;-63
2022/04/05 13:33:04;;;;;;;;;;;21.50;99.90;;;;;;5091496;28;19920;-63
2022/04/05 13:35:31;;;;;;;;;;;21.40;99.90;;;;;;5101366;28;19931;-63
2022/04/05 13:37:59;;;;;;;;;;;21.40;99.90;;;;;;5088040;28;19924;-63
2022/04/05 13:40:26;;;;;;;;;;;21.40;99.90;;;;;;5103332;28;19928;-63
2022/04/05 13:42:54;;;;;;;;;;;21.30;99.90;;;;;;5104490;28;19927;-63
2022/04/05 13:45:22;;;;;;;;;;;21.30;99.50;;;;;;5100691;28;19924;-65
2022/04/05 13:47:49;;;;;;;;;;;21.20;99.20;;;;;;5100623;28;19935;-63
2022/04/05 13:50:20;;;;;;;;;;;21.30;99.10;;;;;;5098486;28;19959;-64
2022/04/05 13:52:47;;;;;;;;;;;21.30;99.30;;;;;;5068049;28;19928;-58
2022/04/05 13:55:14;;;;;;;;;;;21.40;99.30;;;;;;5084379;28;19924;-60
2022/04/05 13:57:41;;;;;;;;;;;21.40;99.10;;;;;;5085390;28;19931;-60
2022/04/05 14:00:09;;;;;;;;;;;21.60;99.50;;;;;;5096944;28;19928;-58
2022/04/05 14:02:36;;;;;;;;;;;21.70;99.50;;;;;;5093899;28;19931;-60
2022/04/05 14:05:04;;;;;;;;;;;21.80;99.70;;;;;;5094680;28;19923;-58
2022/04/05 14:07:31;;;;;;;;;;;21.80;99.40;;;;;;5086089;28;20349;-59
2022/04/05 14:09:59;;;;;;;;;;;21.80;99.30;;;;;;5104423;28;19923;-58
2022/04/05 14:12:26;;;;;;;;;;;21.90;99.20;;;;;;5095171;28;19991;-57
2022/04/05 14:14:54;;;;;;;;;;;21.90;99.40;;;;;;5106620;28;19947;-62
2022/04/05 14:17:21;;;;;;;;;;;21.90;99.50;;;;;;5114192;28;19935;-62
2022/04/05 14:19:48;;;;;;;;;;;21.80;99.60;;;;;;5118569;28;20210;-62
2022/04/05 14:22:16;;;;;;;;;;;21.80;99.60;;;;;;5119296;28;19920;-60
2022/04/05 14:24:43;;;;;;;;;;;21.80;99.70;;;;;;5109295;28;19931;-60
2022/04/05 14:27:10;;;;;;;;;;;21.80;99.30;;;;;;5110882;28;19923;-59